Time;durP1;ratioP1;P1;durP2;ratioP2;P2;SDS_P1;SDS_P2;PMS_P1;PMS_P2;Temp;Humidity;BMP_temperature;BMP_pressure;BME280_temperature;BME280_humidity;BME280_pressure;Samples;Min_cycle;Max_cycle;Signal;HPM_P1;HPM_P2
2024/01/09 00:00:40;;;;;;;9.80;8.17;;;;;;;;;;5106327;28;20575;-78
2024/01/09 00:03:10;;;;;;;15.90;11.30;;;;;;;;;;5114166;28;20219;-78
2024/01/09 00:05:37;;;;;;;20.17;13.13;;;;;;;;;;5114441;28;20195;-78
2024/01/09 00:08:05;;;;;;;13.57;10.00;;;;;;;;;;5112471;28;20200;-78
2024/01/09 00:10:31;;;;;;;11.33;9.13;;;;;;;;;;5114321;28;20219;-78
2024/01/09 00:12:59;;;;;;;9.53;8.33;;;;;;;;;;5114856;28;20199;-78
2024/01/09 00:15:26;;;;;;;10.63;8.67;;;;;;;;;;5114326;28;20195;-78
2024/01/09 00:17:53;;;;;;;10.83;8.70;;;;;;;;;;5114644;28;20191;-78
2024/01/09 00:20:21;;;;;;;9.33;8.43;;;;;;;;;;5114138;28;20191;-78
2024/01/09 00:22:48;;;;;;;10.20;8.30;;;;;;;;;;5114241;28;20291;-78
2024/01/09 00:25:16;;;;;;;11.07;8.07;;;;;;;;;;5113681;28;20200;-78
2024/01/09 00:27:42;;;;;;;9.60;7.93;;;;;;;;;;5112365;28;20199;-78
2024/01/09 00:30:13;;;;;;;10.73;8.93;;;;;;;;;;5114769;28;20231;-78
2024/01/09 00:32:40;;;;;;;22.13;16.07;;;;;;;;;;5098636;28;20235;-78
2024/01/09 00:35:08;;;;;;;11.17;9.10;;;;;;;;;;5114180;28;20199;-78
2024/01/09 00:37:36;;;;;;;11.13;8.53;;;;;;;;;;5113568;28;20196;-78
2024/01/09 00:40:02;;;;;;;9.33;8.33;;;;;;;;;;5113825;28;20210;-78
2024/01/09 00:42:29;;;;;;;12.13;9.67;;;;;;;;;;5113479;28;20195;-78
2024/01/09 00:44:56;;;;;;;15.13;10.77;;;;;;;;;;5113461;28;20199;-78
2024/01/09 00:47:23;;;;;;;11.30;10.07;;;;;;;;;;5113249;28;20203;-78
2024/01/09 00:49:49;;;;;;;11.63;9.93;;;;;;;;;;5112086;28;20219;-78
2024/01/09 00:52:16;;;;;;;15.70;11.97;;;;;;;;;;5113170;28;20199;-78
2024/01/09 00:54:45;;;;;;;13.60;11.20;;;;;;;;;;5113098;28;20202;-77
2024/01/09 00:57:12;;;;;;;11.37;9.40;;;;;;;;;;5111670;28;20264;-78
2024/01/09 00:59:39;;;;;;;14.20;9.63;;;;;;;;;;5112815;28;20207;-78
2024/01/09 01:02:06;;;;;;;27.17;16.50;;;;;;;;;;5112513;28;20192;-78
2024/01/09 01:04:35;;;;;;;14.87;11.70;;;;;;;;;;5112703;28;20200;-78
2024/01/09 01:07:02;;;;;;;15.83;10.27;;;;;;;;;;5112784;28;20196;-78
2024/01/09 01:09:28;;;;;;;12.83;8.70;;;;;;;;;;5111753;28;20260;-78
2024/01/09 01:11:57;;;;;;;10.50;8.13;;;;;;;;;;5113019;28;20196;-78
2024/01/09 01:14:24;;;;;;;9.30;8.33;;;;;;;;;;5111850;28;20232;-78
2024/01/09 01:16:51;;;;;;;12.90;9.93;;;;;;;;;;5113272;28;20196;-78
2024/01/09 01:19:18;;;;;;;9.63;7.37;;;;;;;;;;5110974;28;20208;-78
2024/01/09 01:21:45;;;;;;;10.63;8.47;;;;;;;;;;5112807;28;20199;-78
2024/01/09 01:24:12;;;;;;;11.93;8.60;;;;;;;;;;5112667;28;20234;-78
2024/01/09 01:26:39;;;;;;;9.67;7.40;;;;;;;;;;5111226;28;20206;-77
2024/01/09 01:29:07;;;;;;;5.73;5.07;;;;;;;;;;5113181;28;20203;-78
2024/01/09 01:31:34;;;;;;;6.90;6.10;;;;;;;;;;5110353;28;20215;-78
2024/01/09 01:34:01;;;;;;;6.23;5.57;;;;;;;;;;5112012;28;20219;-78
2024/01/09 01:36:27;;;;;;;5.27;4.37;;;;;;;;;;5112257;28;20203;-78
2024/01/09 01:38:54;;;;;;;7.07;6.03;;;;;;;;;;5111775;28;20570;-78
2024/01/09 01:41:21;;;;;;;4.40;4.00;;;;;;;;;;5112517;28;20202;-78
2024/01/09 01:43:48;;;;;;;5.87;4.67;;;;;;;;;;5112579;28;20678;-78
2024/01/09 01:46:16;;;;;;;6.20;5.50;;;;;;;;;;5112659;28;20594;-77
2024/01/09 01:48:43;;;;;;;6.97;4.73;;;;;;;;;;5111451;28;20202;-78
2024/01/09 01:51:10;;;;;;;6.17;4.03;;;;;;;;;;5111894;28;20230;-78
2024/01/09 01:53:37;;;;;;;6.10;5.00;;;;;;;;;;5111213;28;20203;-78
2024/01/09 01:56:05;;;;;;;9.83;6.50;;;;;;;;;;5112310;28;20202;-78
2024/01/09 01:58:33;;;;;;;6.57;5.30;;;;;;;;;;5112307;28;20195;-78
2024/01/09 02:01:00;;;;;;;11.53;8.63;;;;;;;;;;5110572;28;20223;-78
2024/01/09 02:03:28;;;;;;;13.57;10.23;;;;;;;;;;5111683;28;20191;-78
2024/01/09 02:05:56;;;;;;;14.27;10.07;;;;;;;;;;5111402;28;20536;-78
2024/01/09 02:08:25;;;;;;;12.80;9.20;;;;;;;;;;5111554;28;20199;-78
2024/01/09 02:10:51;;;;;;;13.13;9.73;;;;;;;;;;5112165;28;20215;-78
2024/01/09 02:13:18;;;;;;;11.27;8.40;;;;;;;;;;5112529;28;20574;-77
2024/01/09 02:15:45;;;;;;;10.63;9.30;;;;;;;;;;5111987;28;20195;-77
2024/01/09 02:18:12;;;;;;;17.27;10.60;;;;;;;;;;5111891;28;20200;-78
2024/01/09 02:20:40;;;;;;;16.43;10.90;;;;;;;;;;5112053;28;20191;-78
2024/01/09 02:23:06;;;;;;;15.50;10.83;;;;;;;;;;5110838;28;20620;-78
2024/01/09 02:25:37;;;;;;;11.93;9.10;;;;;;;;;;5111934;28;20693;-77
2024/01/09 02:28:08;;;;;;;15.63;10.37;;;;;;;;;;5112314;28;20280;-77
2024/01/09 02:30:37;;;;;;;9.97;7.57;;;;;;;;;;5109648;28;20257;-78
2024/01/09 02:33:04;;;;;;;16.27;12.20;;;;;;;;;;5115719;28;20635;-78
2024/01/09 02:35:31;;;;;;;12.97;9.63;;;;;;;;;;5115366;28;20562;-78
2024/01/09 02:37:57;;;;;;;10.87;8.63;;;;;;;;;;5116055;28;20195;-78
2024/01/09 02:40:24;;;;;;;13.17;9.87;;;;;;;;;;5115936;28;20665;-78
2024/01/09 02:42:51;;;;;;;9.03;8.07;;;;;;;;;;5115886;28;20730;-78
2024/01/09 02:45:18;;;;;;;6.77;6.07;;;;;;;;;;5114506;28;20252;-77
2024/01/09 02:47:46;;;;;;;6.90;5.33;;;;;;;;;;5115827;28;20199;-77
2024/01/09 02:50:13;;;;;;;7.20;6.37;;;;;;;;;;5115490;28;20674;-77
2024/01/09 02:52:39;;;;;;;8.33;6.10;;;;;;;;;;5115811;28;20202;-77
2024/01/09 02:55:06;;;;;;;5.80;4.70;;;;;;;;;;5115837;28;20199;-77
2024/01/09 02:57:40;;;;;;;6.67;5.70;;;;;;;;;;5115837;28;20222;-77
2024/01/09 03:00:08;;;;;;;6.83;4.67;;;;;;;;;;5115377;28;20256;-77
2024/01/09 03:02:35;;;;;;;7.60;6.00;;;;;;;;;;5115067;28;20234;-77
2024/01/09 03:05:04;;;;;;;6.77;6.00;;;;;;;;;;5114298;28;20204;-77
2024/01/09 03:07:31;;;;;;;6.73;5.80;;;;;;;;;;5114654;28;20202;-77
2024/01/09 03:09:58;;;;;;;6.60;5.73;;;;;;;;;;5114390;28;20199;-77
2024/01/09 03:12:25;;;;;;;8.23;6.30;;;;;;;;;;5116144;28;20223;-77
2024/01/09 03:14:52;;;;;;;8.67;5.83;;;;;;;;;;5113738;28;20196;-78
2024/01/09 03:17:19;;;;;;;7.37;6.20;;;;;;;;;;5114765;28;20268;-78
2024/01/09 03:19:46;;;;;;;8.20;5.57;;;;;;;;;;5113952;28;20200;-77
2024/01/09 03:22:14;;;;;;;10.23;7.93;;;;;;;;;;5115940;28;20195;-77
2024/01/09 03:24:41;;;;;;;6.63;4.73;;;;;;;;;;5114850;28;20199;-77
2024/01/09 03:27:07;;;;;;;5.17;4.67;;;;;;;;;;5114758;28;20196;-77
2024/01/09 03:29:34;;;;;;;7.07;6.37;;;;;;;;;;5115148;28;20200;-77
2024/01/09 03:32:01;;;;;;;6.70;5.50;;;;;;;;;;5114972;28;20626;-78
2024/01/09 03:34:28;;;;;;;9.67;6.97;;;;;;;;;;5112261;28;20204;-77
2024/01/09 03:36:54;;;;;;;6.97;5.23;;;;;;;;;;5114333;28;20244;-77
2024/01/09 03:39:23;;;;;;;11.87;7.67;;;;;;;;;;5113303;28;20195;-78
2024/01/09 03:41:51;;;;;;;9.93;5.80;;;;;;;;;;5114826;28;20561;-78
2024/01/09 03:44:18;;;;;;;7.60;5.93;;;;;;;;;;5112883;28;20255;-78
2024/01/09 03:46:46;;;;;;;7.30;5.07;;;;;;;;;;5114767;28;20573;-80
2024/01/09 03:49:13;;;;;;;7.90;5.47;;;;;;;;;;5114367;28;20200;-81
2024/01/09 03:51:40;;;;;;;18.63;9.63;;;;;;;;;;5115047;28;20223;-80
2024/01/09 03:54:07;;;;;;;9.00;6.30;;;;;;;;;;5114516;28;20214;-81
2024/01/09 03:56:35;;;;;;;9.20;6.43;;;;;;;;;;5114072;28;20210;-80
2024/01/09 03:59:02;;;;;;;10.40;7.43;;;;;;;;;;5113070;28;20195;-80
2024/01/09 04:01:29;;;;;;;9.07;7.33;;;;;;;;;;5114181;28;20195;-80
2024/01/09 04:03:56;;;;;;;9.63;7.43;;;;;;;;;;5114949;28;20196;-77
2024/01/09 04:06:23;;;;;;;8.23;5.20;;;;;;;;;;5114397;28;20202;-77
2024/01/09 04:08:50;;;;;;;7.00;5.57;;;;;;;;;;5112226;28;20607;-77
2024/01/09 04:11:16;;;;;;;7.50;5.50;;;;;;;;;;5113221;28;20215;-78
2024/01/09 04:13:45;;;;;;;7.13;6.13;;;;;;;;;;5114455;28;20192;-77
2024/01/09 04:16:12;;;;;;;5.60;4.00;;;;;;;;;;5113718;28;20712;-77
2024/01/09 04:18:39;;;;;;;6.83;4.93;;;;;;;;;;5099998;28;20287;-76
2024/01/09 04:21:06;;;;;;;4.73;4.33;;;;;;;;;;5094385;28;20208;-77
2024/01/09 04:23:35;;;;;;;7.33;4.67;;;;;;;;;;5099959;28;20191;-77
2024/01/09 04:26:02;;;;;;;10.43;7.53;;;;;;;;;;5113422;28;20198;-77
2024/01/09 04:28:29;;;;;;;7.20;4.93;;;;;;;;;;5113674;28;20605;-77
2024/01/09 04:30:57;;;;;;;9.27;6.07;;;;;;;;;;5114658;28;20669;-77
2024/01/09 04:33:24;;;;;;;5.57;4.57;;;;;;;;;;5113818;28;20227;-77
2024/01/09 04:35:51;;;;;;;6.33;5.60;;;;;;;;;;5111617;28;20274;-76
2024/01/09 04:38:18;;;;;;;7.60;5.40;;;;;;;;;;5111532;28;20257;-77
2024/01/09 04:40:44;;;;;;;5.43;4.67;;;;;;;;;;5112945;28;20678;-77
2024/01/09 04:43:11;;;;;;;5.73;5.07;;;;;;;;;;5112504;28;20207;-76
2024/01/09 04:45:38;;;;;;;6.40;5.30;;;;;;;;;;5112819;28;20326;-76
2024/01/09 04:48:07;;;;;;;4.27;3.80;;;;;;;;;;5113708;28;20203;-76
2024/01/09 04:50:34;;;;;;;6.73;6.03;;;;;;;;;;5113015;28;20203;-76
2024/01/09 04:53:01;;;;;;;5.80;5.00;;;;;;;;;;5113016;28;20199;-76
2024/01/09 04:55:28;;;;;;;7.50;6.03;;;;;;;;;;5112702;28;20200;-76
2024/01/09 04:57:54;;;;;;;7.47;6.10;;;;;;;;;;5112361;28;20198;-76
2024/01/09 05:00:22;;;;;;;8.70;5.60;;;;;;;;;;5113233;28;20192;-76
2024/01/09 05:02:49;;;;;;;7.67;6.33;;;;;;;;;;5111861;28;20244;-76
2024/01/09 05:05:17;;;;;;;7.90;6.33;;;;;;;;;;5111958;28;20203;-76
2024/01/09 05:07:43;;;;;;;12.10;7.57;;;;;;;;;;5111739;28;20248;-76
2024/01/09 05:10:10;;;;;;;5.53;4.77;;;;;;;;;;5112190;28;20650;-76
2024/01/09 05:12:37;;;;;;;11.33;8.30;;;;;;;;;;5112166;28;20226;-76
2024/01/09 05:15:05;;;;;;;8.20;6.20;;;;;;;;;;5111376;28;20191;-76
2024/01/09 05:17:31;;;;;;;7.80;6.17;;;;;;;;;;5113123;28;20203;-76
2024/01/09 05:19:58;;;;;;;8.37;6.80;;;;;;;;;;5111574;28;20199;-76
2024/01/09 05:22:27;;;;;;;5.93;5.10;;;;;;;;;;5112526;28;20227;-75
2024/01/09 05:24:53;;;;;;;8.70;6.57;;;;;;;;;;5112648;28;20210;-75
2024/01/09 05:27:20;;;;;;;7.27;5.97;;;;;;;;;;5112628;28;20211;-75
2024/01/09 05:29:47;;;;;;;6.37;5.27;;;;;;;;;;5106944;28;20196;-76
2024/01/09 05:32:14;;;;;;;8.43;6.27;;;;;;;;;;5092495;28;20247;-78
2024/01/09 05:34:41;;;;;;;7.43;5.03;;;;;;;;;;5092228;28;20203;-78
2024/01/09 05:37:08;;;;;;;8.27;5.37;;;;;;;;;;5091204;28;20200;-80
2024/01/09 05:39:36;;;;;;;7.67;5.90;;;;;;;;;;5087518;28;20200;-77
2024/01/09 05:42:04;;;;;;;7.67;5.87;;;;;;;;;;5111998;28;20202;-76
2024/01/09 05:44:30;;;;;;;8.33;5.40;;;;;;;;;;5111538;28;20282;-76
2024/01/09 05:46:57;;;;;;;6.90;5.33;;;;;;;;;;5100748;28;20550;-77
2024/01/09 05:49:24;;;;;;;7.67;5.53;;;;;;;;;;5111512;28;20200;-76
2024/01/09 05:51:51;;;;;;;8.50;7.43;;;;;;;;;;5111962;28;20222;-76
2024/01/09 05:54:17;;;;;;;9.60;5.97;;;;;;;;;;5111011;28;20250;-76
2024/01/09 05:56:45;;;;;;;9.37;5.57;;;;;;;;;;5112043;28;20210;-76
2024/01/09 05:59:12;;;;;;;7.13;5.73;;;;;;;;;;5112277;28;20195;-76
2024/01/09 06:01:39;;;;;;;8.10;6.17;;;;;;;;;;5110241;28;20249;-76
2024/01/09 06:04:06;;;;;;;5.80;4.73;;;;;;;;;;5110893;28;20249;-76
2024/01/09 06:06:33;;;;;;;6.57;5.37;;;;;;;;;;5112903;28;20203;-76
2024/01/09 06:08:59;;;;;;;5.43;4.93;;;;;;;;;;5115657;28;20199;-76
2024/01/09 06:11:26;;;;;;;6.37;4.97;;;;;;;;;;5115241;28;20219;-76
2024/01/09 06:13:55;;;;;;;6.37;4.53;;;;;;;;;;5113460;28;20260;-76
2024/01/09 06:16:22;;;;;;;7.17;4.87;;;;;;;;;;5103749;28;20226;-76
2024/01/09 06:18:49;;;;;;;5.77;4.70;;;;;;;;;;5115012;28;20191;-76
2024/01/09 06:21:16;;;;;;;7.60;5.07;;;;;;;;;;5114999;28;20195;-76
2024/01/09 06:23:43;;;;;;;7.70;4.97;;;;;;;;;;5115105;28;20196;-76
2024/01/09 06:26:13;;;;;;;7.70;4.63;;;;;;;;;;5115764;28;20196;-75
2024/01/09 06:28:40;;;;;;;7.80;5.80;;;;;;;;;;5113516;28;20271;-75
2024/01/09 06:31:08;;;;;;;5.63;4.60;;;;;;;;;;5115105;28;20203;-76
2024/01/09 06:33:35;;;;;;;9.40;5.93;;;;;;;;;;5114089;28;20223;-76
2024/01/09 06:36:02;;;;;;;6.40;5.27;;;;;;;;;;5114662;28;20214;-76
2024/01/09 06:38:29;;;;;;;6.37;5.23;;;;;;;;;;5115293;28;20196;-76
2024/01/09 06:40:55;;;;;;;6.10;4.77;;;;;;;;;;5115238;28;20196;-76
2024/01/09 06:43:22;;;;;;;8.23;5.87;;;;;;;;;;5114635;28;20203;-78
2024/01/09 06:45:49;;;;;;;6.00;4.73;;;;;;;;;;5114938;28;20192;-76
2024/01/09 06:48:17;;;;;;;5.63;4.73;;;;;;;;;;5114740;28;20210;-76
2024/01/09 06:50:44;;;;;;;7.53;5.73;;;;;;;;;;5114599;28;20269;-75
2024/01/09 06:53:11;;;;;;;7.27;5.50;;;;;;;;;;5114707;28;20219;-76
2024/01/09 06:55:38;;;;;;;5.27;4.53;;;;;;;;;;5114016;28;20196;-76
2024/01/09 06:58:05;;;;;;;4.93;4.13;;;;;;;;;;5114856;28;20200;-76
2024/01/09 07:00:31;;;;;;;5.37;4.87;;;;;;;;;;5114452;28;20196;-76
2024/01/09 07:02:59;;;;;;;7.03;4.80;;;;;;;;;;5114213;28;20645;-76
2024/01/09 07:05:27;;;;;;;7.93;5.33;;;;;;;;;;5114557;28;20196;-76
2024/01/09 07:07:54;;;;;;;5.33;4.70;;;;;;;;;;5114642;28;20199;-76
2024/01/09 07:10:21;;;;;;;7.23;5.37;;;;;;;;;;5114140;28;20445;-76
2024/01/09 07:12:48;;;;;;;7.17;5.17;;;;;;;;;;5113927;28;20705;-77
2024/01/09 07:15:15;;;;;;;7.33;3.60;;;;;;;;;;5114295;28;20199;-77
2024/01/09 07:17:42;;;;;;;4.90;3.80;;;;;;;;;;5114132;28;20199;-76
2024/01/09 07:20:10;;;;;;;6.70;4.80;;;;;;;;;;5113931;28;20203;-76
2024/01/09 07:22:38;;;;;;;7.03;5.37;;;;;;;;;;5113827;28;20223;-76
2024/01/09 07:25:06;;;;;;;9.87;5.77;;;;;;;;;;5113949;28;20199;-76
2024/01/09 07:27:33;;;;;;;5.97;5.03;;;;;;;;;;5113797;28;20191;-76
2024/01/09 07:30:00;;;;;;;6.63;4.50;;;;;;;;;;5105971;28;20224;-77
2024/01/09 07:32:27;;;;;;;6.63;5.30;;;;;;;;;;5105411;28;20325;-77
2024/01/09 07:34:54;;;;;;;7.63;6.17;;;;;;;;;;5114298;28;20192;-77
2024/01/09 07:37:20;;;;;;;6.10;4.93;;;;;;;;;;5113999;28;20440;-77
2024/01/09 07:39:49;;;;;;;7.20;5.03;;;;;;;;;;5113273;28;20201;-77
2024/01/09 07:42:16;;;;;;;8.53;5.40;;;;;;;;;;5109862;28;20568;-78
2024/01/09 07:44:43;;;;;;;7.93;5.07;;;;;;;;;;5114022;28;20506;-77
2024/01/09 07:47:13;;;;;;;5.83;4.70;;;;;;;;;;5113680;28;20448;-78
2024/01/09 07:49:40;;;;;;;6.73;5.87;;;;;;;;;;5113345;28;20199;-78
2024/01/09 07:52:07;;;;;;;9.40;5.77;;;;;;;;;;5113548;28;20492;-78
2024/01/09 07:54:36;;;;;;;5.10;4.60;;;;;;;;;;5113744;28;20452;-78
2024/01/09 07:57:05;;;;;;;3.77;2.80;;;;;;;;;;5113433;28;20490;-79
2024/01/09 07:59:32;;;;;;;8.53;5.33;;;;;;;;;;5113719;28;20438;-78
2024/01/09 08:02:01;;;;;;;6.00;5.03;;;;;;;;;;5113669;28;20453;-78
2024/01/09 08:04:28;;;;;;;7.40;5.03;;;;;;;;;;5113424;28;20199;-78
2024/01/09 08:06:55;;;;;;;5.07;4.37;;;;;;;;;;5112517;28;20629;-78
2024/01/09 08:09:22;;;;;;;4.73;4.27;;;;;;;;;;5102821;28;20195;-78
2024/01/09 08:11:49;;;;;;;5.77;5.07;;;;;;;;;;5113667;28;20441;-78
2024/01/09 08:14:17;;;;;;;4.27;3.80;;;;;;;;;;5113355;28;20199;-79
2024/01/09 08:16:44;;;;;;;5.77;4.50;;;;;;;;;;5113388;28;20943;-78
2024/01/09 08:19:11;;;;;;;7.37;5.23;;;;;;;;;;5112804;28;20850;-77
2024/01/09 08:21:37;;;;;;;5.50;4.23;;;;;;;;;;5112904;28;20970;-78
2024/01/09 08:24:05;;;;;;;4.27;3.87;;;;;;;;;;5113036;28;20441;-78
2024/01/09 08:26:31;;;;;;;13.97;5.97;;;;;;;;;;5113122;28;20482;-78
2024/01/09 08:28:59;;;;;;;5.23;4.33;;;;;;;;;;5112436;28;20450;-78
2024/01/09 08:31:27;;;;;;;6.53;4.10;;;;;;;;;;5113489;28;20438;-78
2024/01/09 08:33:54;;;;;;;5.93;4.87;;;;;;;;;;5112621;28;20481;-79
2024/01/09 08:36:21;;;;;;;4.27;3.77;;;;;;;;;;5112598;28;20580;-78
2024/01/09 08:38:48;;;;;;;5.07;4.23;;;;;;;;;;5113060;28;20206;-78
2024/01/09 08:41:17;;;;;;;8.33;4.70;;;;;;;;;;5113055;28;20192;-78
2024/01/09 08:43:44;;;;;;;9.00;6.07;;;;;;;;;;5112794;28;20287;-78
2024/01/09 08:46:10;;;;;;;6.00;5.03;;;;;;;;;;5112664;28;20456;-78
2024/01/09 08:48:39;;;;;;;4.93;4.10;;;;;;;;;;5112500;28;21007;-78
2024/01/09 08:51:06;;;;;;;7.30;5.03;;;;;;;;;;5112739;28;20441;-78
2024/01/09 08:53:36;;;;;;;5.17;4.10;;;;;;;;;;5110886;28;20223;-78
2024/01/09 08:56:03;;;;;;;10.47;5.73;;;;;;;;;;5112143;28;20448;-78
2024/01/09 08:58:30;;;;;;;5.93;4.90;;;;;;;;;;5112138;28;20202;-78
2024/01/09 09:00:56;;;;;;;7.00;5.23;;;;;;;;;;5112691;28;20967;-78
2024/01/09 09:03:23;;;;;;;8.33;5.80;;;;;;;;;;5110220;28;20456;-79
2024/01/09 09:05:51;;;;;;;7.13;5.30;;;;;;;;;;5111678;28;20515;-78
2024/01/09 09:08:20;;;;;;;10.47;5.47;;;;;;;;;;5112415;28;20449;-79
2024/01/09 09:10:47;;;;;;;12.17;8.90;;;;;;;;;;5112628;28;20449;-79
2024/01/09 09:13:14;;;;;;;7.73;5.47;;;;;;;;;;5112063;28;20476;-79
2024/01/09 09:15:41;;;;;;;6.63;5.27;;;;;;;;;;5112169;28;20448;-78
2024/01/09 09:18:08;;;;;;;7.43;5.23;;;;;;;;;;5112310;28;20445;-78
2024/01/09 09:20:34;;;;;;;11.33;6.83;;;;;;;;;;5112647;28;20456;-79
2024/01/09 09:23:05;;;;;;;6.07;4.57;;;;;;;;;;5112774;28;20437;-79
2024/01/09 09:25:35;;;;;;;6.33;4.77;;;;;;;;;;5112563;28;20553;-78
2024/01/09 09:28:02;;;;;;;6.17;4.67;;;;;;;;;;5111700;28;20457;-79
2024/01/09 09:30:29;;;;;;;7.50;4.67;;;;;;;;;;5111801;28;20490;-79
2024/01/09 09:32:58;;;;;;;4.87;4.27;;;;;;;;;;5111804;28;20843;-79
2024/01/09 09:35:25;;;;;;;5.23;4.40;;;;;;;;;;5111794;28;20222;-79
2024/01/09 09:37:51;;;;;;;6.10;4.83;;;;;;;;;;5112397;28;20448;-79
2024/01/09 09:40:20;;;;;;;9.50;5.33;;;;;;;;;;5111286;28;21067;-79
2024/01/09 09:42:49;;;;;;;7.23;5.30;;;;;;;;;;5111733;28;20449;-78
2024/01/09 09:45:18;;;;;;;4.93;4.47;;;;;;;;;;5110850;28;20449;-79
2024/01/09 09:47:45;;;;;;;5.47;3.93;;;;;;;;;;5112143;28;20441;-78
2024/01/09 09:50:12;;;;;;;8.47;6.43;;;;;;;;;;5111477;28;20509;-78
2024/01/09 09:52:41;;;;;;;5.33;3.90;;;;;;;;;;5111446;28;20488;-78
2024/01/09 09:55:10;;;;;;;7.23;4.93;;;;;;;;;;5110684;28;20573;-78
2024/01/09 09:57:38;;;;;;;6.37;4.63;;;;;;;;;;5071041;28;20842;-78
2024/01/09 10:00:08;;;;;;;10.60;5.67;;;;;;;;;;5099535;28;20433;-79
2024/01/09 10:02:35;;;;;;;6.63;3.97;;;;;;;;;;5111765;28;20449;-78
2024/01/09 10:05:03;;;;;;;5.27;4.50;;;;;;;;;;5109761;28;20449;-80
2024/01/09 10:07:34;;;;;;;4.27;3.53;;;;;;;;;;5112021;28;20453;-78
2024/01/09 10:10:05;;;;;;;6.27;5.17;;;;;;;;;;5111820;28;20206;-79
2024/01/09 10:12:32;;;;;;;7.53;5.87;;;;;;;;;;5111846;28;20444;-78
2024/01/09 10:15:08;;;;;;;10.23;4.83;;;;;;;;;;5111271;28;20975;-78
2024/01/09 10:17:35;;;;;;;8.67;5.50;;;;;;;;;;5111441;28;20441;-78
2024/01/09 10:20:04;;;;;;;5.47;4.83;;;;;;;;;;5110727;28;20279;-78
2024/01/09 10:22:33;;;;;;;5.13;4.00;;;;;;;;;;5111400;28;20195;-78
2024/01/09 10:25:00;;;;;;;9.03;5.87;;;;;;;;;;5111559;28;20449;-77
2024/01/09 10:27:27;;;;;;;7.03;4.63;;;;;;;;;;5111044;28;20203;-78
2024/01/09 10:29:54;;;;;;;8.30;5.47;;;;;;;;;;5111420;28;20445;-78
2024/01/09 10:32:22;;;;;;;8.47;5.23;;;;;;;;;;5110538;28;20527;-78
2024/01/09 10:34:49;;;;;;;8.97;4.97;;;;;;;;;;5111347;28;20441;-77
2024/01/09 10:37:16;;;;;;;7.40;5.40;;;;;;;;;;5111551;28;20510;-78
2024/01/09 10:39:48;;;;;;;7.73;5.67;;;;;;;;;;5111115;28;20445;-78
2024/01/09 10:42:14;;;;;;;9.73;7.10;;;;;;;;;;5111720;28;20852;-78
2024/01/09 10:44:41;;;;;;;10.73;7.60;;;;;;;;;;5111259;28;20943;-77
2024/01/09 10:47:09;;;;;;;11.67;7.63;;;;;;;;;;5111195;28;20455;-78
2024/01/09 10:49:39;;;;;;;8.27;6.10;;;;;;;;;;5111578;28;20862;-78
2024/01/09 10:52:11;;;;;;;5.27;3.97;;;;;;;;;;5110998;28;20227;-78
2024/01/09 10:54:39;;;;;;;9.90;6.33;;;;;;;;;;5115041;28;20472;-78
2024/01/09 10:57:06;;;;;;;7.33;6.27;;;;;;;;;;5114970;28;20808;-78
2024/01/09 10:59:34;;;;;;;6.03;5.13;;;;;;;;;;5115441;28;20200;-78
2024/01/09 11:02:02;;;;;;;9.27;5.67;;;;;;;;;;5114746;28;20441;-78
2024/01/09 11:04:29;;;;;;;6.77;5.50;;;;;;;;;;5115150;28;20858;-78
2024/01/09 11:06:57;;;;;;;7.87;5.90;;;;;;;;;;5115045;28;20195;-78
2024/01/09 11:09:25;;;;;;;7.10;5.67;;;;;;;;;;5114680;28;20195;-79
2024/01/09 11:11:52;;;;;;;7.40;5.30;;;;;;;;;;5114275;28;20951;-79
2024/01/09 11:14:20;;;;;;;9.20;5.47;;;;;;;;;;5114602;28;20852;-78
2024/01/09 11:16:48;;;;;;;5.97;5.10;;;;;;;;;;5114625;28;20444;-78
2024/01/09 11:19:15;;;;;;;6.80;5.07;;;;;;;;;;5113624;28;20848;-79
2024/01/09 11:21:42;;;;;;;11.47;5.70;;;;;;;;;;5114853;28;20430;-79
2024/01/09 11:24:10;;;;;;;6.30;5.57;;;;;;;;;;5114130;28;20955;-79
2024/01/09 11:26:41;;;;;;;6.10;4.30;;;;;;;;;;5114704;28;20505;-78
2024/01/09 11:29:10;;;;;;;8.00;5.53;;;;;;;;;;5113941;28;20441;-79
2024/01/09 11:31:38;;;;;;;9.87;5.90;;;;;;;;;;5114318;28;20433;-79
2024/01/09 11:34:06;;;;;;;6.27;4.53;;;;;;;;;;5113651;28;20617;-79
2024/01/09 11:36:37;;;;;;;5.23;4.00;;;;;;;;;;5114644;28;20199;-79
2024/01/09 11:39:05;;;;;;;5.33;3.90;;;;;;;;;;5114317;28;20578;-79
2024/01/09 11:41:35;;;;;;;6.93;4.87;;;;;;;;;;5111782;28;20206;-79
2024/01/09 11:44:01;;;;;;;16.20;8.33;;;;;;;;;;5113491;28;20815;-80
2024/01/09 11:46:29;;;;;;;6.60;5.90;;;;;;;;;;5113935;28;20506;-80
2024/01/09 11:48:56;;;;;;;20.07;10.17;;;;;;;;;;5113960;28;20449;-80
2024/01/09 11:51:25;;;;;;;16.77;12.53;;;;;;;;;;5113906;28;20445;-79
2024/01/09 11:53:51;;;;;;;8.30;5.50;;;;;;;;;;5113501;28;20492;-80
2024/01/09 11:56:18;;;;;;;9.23;5.33;;;;;;;;;;5114403;28;20448;-80
2024/01/09 11:58:46;;;;;;;4.27;3.53;;;;;;;;;;5113171;28;20996;-80
2024/01/09 12:01:13;;;;;;;8.77;6.33;;;;;;;;;;5113780;28;20841;-80
2024/01/09 12:03:40;;;;;;;6.00;5.13;;;;;;;;;;5112733;28;20441;-80
2024/01/09 12:06:07;;;;;;;9.57;6.63;;;;;;;;;;5113544;28;20452;-80
2024/01/09 12:08:37;;;;;;;8.13;5.67;;;;;;;;;;5112518;28;20939;-81
2024/01/09 12:11:04;;;;;;;10.10;5.40;;;;;;;;;;5113782;28;20444;-80
2024/01/09 12:13:30;;;;;;;10.03;5.53;;;;;;;;;;5113438;28;20473;-80
2024/01/09 12:15:59;;;;;;;7.97;5.57;;;;;;;;;;5113238;28;20837;-80
2024/01/09 12:18:25;;;;;;;8.97;4.87;;;;;;;;;;5113514;28;20191;-80
2024/01/09 12:20:52;;;;;;;6.87;4.90;;;;;;;;;;5113017;28;20438;-80
2024/01/09 12:23:19;;;;;;;6.87;5.27;;;;;;;;;;5113526;28;20446;-80
2024/01/09 12:25:48;;;;;;;9.37;5.67;;;;;;;;;;5113710;28;20457;-80
2024/01/09 12:28:15;;;;;;;7.70;5.60;;;;;;;;;;5113402;28;20199;-80
2024/01/09 12:30:43;;;;;;;5.00;4.50;;;;;;;;;;5113554;28;20433;-80
2024/01/09 12:33:11;;;;;;;7.23;4.70;;;;;;;;;;5086258;28;20533;-80
2024/01/09 12:35:42;;;;;;;6.60;4.77;;;;;;;;;;5113197;28;20481;-80
2024/01/09 12:38:11;;;;;;;5.80;4.87;;;;;;;;;;5112848;28;20955;-81
2024/01/09 12:40:37;;;;;;;6.97;4.50;;;;;;;;;;5113343;28;20445;-80
2024/01/09 12:43:11;;;;;;;6.57;5.27;;;;;;;;;;5112719;28;20441;-80
2024/01/09 12:45:39;;;;;;;5.47;4.77;;;;;;;;;;5113141;28;20221;-80
2024/01/09 12:48:10;;;;;;;4.63;4.20;;;;;;;;;;5113155;28;20192;-80
2024/01/09 12:50:39;;;;;;;5.40;4.67;;;;;;;;;;5112828;28;20437;-80
2024/01/09 12:53:05;;;;;;;3.23;2.93;;;;;;;;;;5112153;28;20448;-80
2024/01/09 12:55:34;;;;;;;7.60;4.43;;;;;;;;;;5112727;28;20441;-80
2024/01/09 12:58:01;;;;;;;7.53;5.20;;;;;;;;;;5112428;28;20495;-80
2024/01/09 13:00:28;;;;;;;5.77;4.80;;;;;;;;;;5112755;28;20808;-80
2024/01/09 13:02:55;;;;;;;6.60;4.50;;;;;;;;;;5112652;28;20438;-80
2024/01/09 13:05:22;;;;;;;9.30;5.33;;;;;;;;;;5109499;28;20960;-81
2024/01/09 13:07:50;;;;;;;6.73;4.73;;;;;;;;;;5112326;28;20445;-80
2024/01/09 13:10:17;;;;;;;6.53;4.77;;;;;;;;;;5112294;28;20445;-81
2024/01/09 13:12:46;;;;;;;5.23;4.73;;;;;;;;;;5112050;28;20963;-80
2024/01/09 13:15:13;;;;;;;7.27;4.20;;;;;;;;;;5111597;28;20488;-80
2024/01/09 13:17:40;;;;;;;4.60;3.87;;;;;;;;;;5111707;28;20454;-80
2024/01/09 13:20:08;;;;;;;4.87;3.63;;;;;;;;;;5111971;28;20449;-81
2024/01/09 13:22:35;;;;;;;7.23;5.30;;;;;;;;;;5112037;28;20252;-81
2024/01/09 13:25:04;;;;;;;6.40;4.63;;;;;;;;;;5111400;28;20449;-82
2024/01/09 13:27:31;;;;;;;5.93;5.00;;;;;;;;;;5112112;28;20441;-82
2024/01/09 13:29:58;;;;;;;5.80;4.67;;;;;;;;;;5111419;28;20441;-81
2024/01/09 13:32:25;;;;;;;3.17;2.53;;;;;;;;;;5111348;28;20821;-80
2024/01/09 13:34:52;;;;;;;8.87;4.83;;;;;;;;;;5109809;28;20564;-80
2024/01/09 13:37:19;;;;;;;7.20;4.17;;;;;;;;;;5112540;28;20452;-81
2024/01/09 13:39:46;;;;;;;6.50;4.07;;;;;;;;;;5111928;28;20480;-80
2024/01/09 13:42:14;;;;;;;8.83;4.87;;;;;;;;;;5111399;28;20959;-81
2024/01/09 13:44:41;;;;;;;4.30;3.90;;;;;;;;;;5112180;28;20444;-81
2024/01/09 13:47:08;;;;;;;5.10;4.33;;;;;;;;;;5112087;28;20494;-81
2024/01/09 13:49:34;;;;;;;5.83;4.77;;;;;;;;;;5111872;28;20527;-81
2024/01/09 13:52:01;;;;;;;5.77;5.17;;;;;;;;;;5111426;28;20456;-81
2024/01/09 13:54:28;;;;;;;4.23;3.83;;;;;;;;;;5111981;28;20565;-80
2024/01/09 13:56:57;;;;;;;5.83;4.87;;;;;;;;;;5111657;28;20502;-80
2024/01/09 13:59:25;;;;;;;5.53;4.57;;;;;;;;;;5109282;28;20445;-81
2024/01/09 14:01:52;;;;;;;6.80;5.30;;;;;;;;;;5111530;28;21027;-81
2024/01/09 14:04:19;;;;;;;4.07;3.67;;;;;;;;;;5108594;28;20488;-81
2024/01/09 14:06:46;;;;;;;7.10;4.47;;;;;;;;;;5111370;28;20800;-81
2024/01/09 14:09:13;;;;;;;8.87;5.03;;;;;;;;;;5111192;28;20445;-81
2024/01/09 14:11:40;;;;;;;6.80;4.97;;;;;;;;;;5111899;28;20467;-81
2024/01/09 14:14:06;;;;;;;7.20;3.83;;;;;;;;;;5111343;28;20889;-81
2024/01/09 14:16:35;;;;;;;6.77;5.30;;;;;;;;;;5111051;28;20445;-81
2024/01/09 14:19:02;;;;;;;6.23;5.17;;;;;;;;;;5110830;28;20449;-81
2024/01/09 14:21:31;;;;;;;7.73;4.87;;;;;;;;;;5111357;28;20449;-81
2024/01/09 14:23:58;;;;;;;8.63;4.37;;;;;;;;;;5111012;28;20456;-81
2024/01/09 14:26:25;;;;;;;3.00;2.77;;;;;;;;;;5110982;28;20452;-81
2024/01/09 14:28:52;;;;;;;6.20;4.50;;;;;;;;;;5114678;28;20452;-81
2024/01/09 14:31:19;;;;;;;5.73;4.07;;;;;;;;;;5114766;28;20455;-81
2024/01/09 14:33:47;;;;;;;4.40;3.33;;;;;;;;;;5115366;28;20475;-81
2024/01/09 14:36:13;;;;;;;5.60;4.50;;;;;;;;;;5114599;28;20857;-81
2024/01/09 14:38:40;;;;;;;6.90;4.67;;;;;;;;;;5115093;28;20432;-81
2024/01/09 14:41:09;;;;;;;5.43;4.20;;;;;;;;;;5114740;28;20986;-81